createdAt,value
2023-05-18T00:04:29.170Z,25.00
2023-05-18T00:09:38.368Z,26.10
2023-05-18T00:14:45.520Z,29.30
2023-05-18T00:19:52.389Z,23.10
2023-05-18T00:24:59.391Z,25.00
2023-05-18T00:30:07.425Z,24.40
2023-05-18T00:35:16.180Z,34.30
2023-05-18T00:40:26.907Z,32.30
2023-05-18T00:45:34.174Z,28.40
2023-05-18T00:50:41.612Z,27.40
2023-05-18T00:55:49.482Z,20.40
2023-05-18T01:00:57.120Z,22.30
2023-05-18T01:06:05.946Z,25.40
2023-05-18T01:11:18.013Z,21.50
2023-05-18T01:16:34.576Z,26.50
2023-05-18T01:21:51.997Z,20.30
2023-05-18T01:27:02.093Z,25.60
2023-05-18T01:32:11.416Z,19.70
2023-05-18T01:37:18.358Z,18.10
2023-05-18T01:42:31.912Z,25.90
2023-05-18T01:47:42.734Z,16.50
2023-05-18T01:52:55.582Z,27.30
2023-05-18T01:58:04.109Z,17.00
2023-05-18T02:03:13.573Z,14.40
2023-05-18T02:08:20.740Z,14.10
2023-05-18T02:13:28.056Z,20.00
2023-05-18T02:18:36.487Z,15.20
2023-05-18T02:23:43.701Z,17.00
2023-05-18T02:28:50.826Z,15.40
2023-05-18T02:33:58.091Z,27.30
2023-05-18T02:39:05.561Z,19.40
2023-05-18T02:44:13.899Z,14.10
2023-05-18T02:49:20.890Z,18.50
2023-05-18T02:54:28.097Z,23.30
2023-05-18T02:59:35.213Z,17.00
2023-05-18T03:04:42.579Z,14.30
2023-05-18T03:09:49.652Z,13.50
2023-05-18T03:14:56.893Z,13.80
2023-05-18T03:20:04.995Z,13.20
2023-05-18T03:25:12.449Z,17.60
2023-05-18T03:30:20.830Z,13.40
2023-05-18T03:35:28.856Z,15.70
2023-05-18T03:40:36.278Z,14.30
2023-05-18T03:45:43.532Z,22.20
2023-05-18T03:50:50.760Z,16.70
2023-05-18T03:55:58.123Z,17.70
2023-05-18T04:01:05.596Z,19.20
2023-05-18T04:06:12.837Z,16.00
2023-05-18T04:11:20.127Z,18.90
2023-05-18T04:16:27.685Z,14.50
2023-05-18T04:21:36.280Z,15.40
2023-05-18T04:26:44.206Z,16.10
2023-05-18T04:31:51.928Z,18.40
2023-05-18T04:36:59.605Z,14.60
2023-05-18T04:42:07.243Z,17.00
2023-05-18T04:47:14.480Z,16.20
2023-05-18T04:52:21.865Z,16.40
2023-05-18T04:57:29.255Z,15.30
2023-05-18T05:02:36.416Z,15.40
2023-05-18T05:07:44.720Z,14.10
2023-05-18T05:12:52.467Z,14.70
2023-05-18T05:18:01.631Z,20.30
2023-05-18T05:23:09.637Z,11.80
2023-05-18T05:28:18.826Z,17.90
2023-05-18T05:33:25.774Z,18.20
2023-05-18T05:38:33.288Z,14.80
2023-05-18T05:43:40.852Z,14.20
2023-05-18T05:48:48.166Z,23.90
2023-05-18T05:53:55.278Z,19.30
2023-05-18T05:59:02.319Z,13.20
2023-05-18T06:04:10.941Z,16.70
2023-05-18T06:09:18.618Z,14.00
2023-05-18T06:14:26.366Z,9.60
2023-05-18T06:19:34.457Z,13.00
2023-05-18T06:24:42.617Z,12.80
2023-05-18T06:30:12.205Z,11.10
2023-05-18T06:35:33.155Z,10.30
2023-05-18T06:40:40.188Z,7.80
2023-05-18T06:45:48.647Z,11.70
2023-05-18T06:51:02.964Z,10.30
2023-05-18T06:56:11.813Z,21.10
2023-05-18T07:01:19.742Z,10.00
2023-05-18T07:06:27.202Z,12.70
2023-05-18T07:11:34.281Z,11.70
2023-05-18T07:16:41.447Z,9.10
2023-05-18T07:21:48.362Z,11.20
2023-05-18T07:26:55.335Z,14.80
2023-05-18T07:32:02.462Z,9.50
2023-05-18T07:37:09.674Z,8.10
2023-05-18T07:42:16.740Z,13.30
2023-05-18T07:47:23.664Z,8.60
2023-05-18T07:52:31.103Z,7.90
2023-05-18T07:57:38.332Z,12.70
2023-05-18T08:02:46.458Z,10.40
2023-05-18T08:07:54.065Z,8.80
2023-05-18T08:13:01.030Z,10.80
2023-05-18T08:18:08.141Z,11.60
2023-05-18T08:23:15.042Z,12.30
2023-05-18T08:28:21.989Z,8.40
2023-05-18T08:33:29.585Z,9.20
2023-05-18T08:38:36.531Z,10.90
2023-05-18T08:43:49.968Z,6.80
2023-05-18T08:48:59.806Z,5.80
2023-05-18T08:54:09.415Z,5.70
2023-05-18T08:59:20.305Z,7.60
2023-05-18T09:09:34.337Z,10.90
2023-05-18T09:14:42.434Z,12.60
2023-05-18T09:19:49.663Z,5.30
2023-05-18T09:24:56.928Z,10.10
2023-05-18T09:30:05.069Z,16.30
2023-05-18T09:35:12.959Z,6.40
2023-05-18T09:40:20.753Z,4.10
2023-05-18T09:45:29.276Z,5.10
2023-05-18T09:50:37.637Z,7.50
2023-05-18T09:55:49.834Z,5.00
2023-05-18T10:01:01.663Z,3.10
2023-05-18T10:06:10.477Z,9.30
2023-05-18T10:11:21.975Z,4.70
2023-05-18T10:16:29.144Z,5.30
2023-05-18T10:21:37.945Z,6.40
2023-05-18T10:26:47.896Z,4.90
2023-05-18T10:31:56.918Z,4.60
2023-05-18T10:37:06.614Z,6.50
2023-05-18T10:42:16.293Z,3.70
2023-05-18T10:47:25.833Z,2.50
2023-05-18T10:52:34.998Z,2.40
2023-05-18T10:57:46.773Z,5.20
2023-05-18T11:02:55.033Z,3.90
2023-05-18T11:08:05.891Z,5.10
2023-05-18T11:18:19.780Z,3.70
2023-05-18T11:23:27.749Z,5.80
2023-05-18T11:28:43.665Z,3.10
2023-05-18T11:33:51.162Z,4.10
2023-05-18T11:39:06.979Z,4.30
2023-05-18T11:44:21.968Z,7.10
2023-05-18T11:49:30.774Z,3.80
2023-05-18T11:54:41.546Z,5.10
2023-05-18T11:59:49.872Z,2.70
2023-05-18T12:05:00.309Z,3.40
2023-05-18T12:10:08.644Z,3.10
2023-05-18T12:15:17.420Z,4.00
2023-05-18T12:20:26.764Z,2.40
2023-05-18T12:25:34.169Z,3.10
2023-05-18T12:30:41.668Z,4.70
2023-05-18T12:35:48.793Z,2.10
2023-05-18T12:40:57.245Z,3.40
2023-05-18T12:46:05.130Z,8.50
2023-05-18T12:51:21.073Z,3.80
2023-05-18T12:56:28.722Z,10.00
2023-05-18T13:01:44.042Z,5.40
2023-05-18T13:06:51.444Z,3.60
2023-05-18T13:12:07.855Z,5.60
2023-05-18T13:17:24.363Z,3.50
2023-05-18T13:22:31.400Z,2.40
2023-05-18T13:27:39.394Z,2.10
2023-05-18T13:32:46.442Z,4.60
2023-05-18T13:37:54.052Z,4.00
2023-05-18T13:43:01.079Z,4.10
2023-05-18T13:48:10.651Z,4.60
2023-05-18T13:53:18.203Z,3.90
2023-05-18T13:58:25.023Z,2.80
2023-05-18T14:03:34.117Z,5.40
2023-05-18T14:08:41.235Z,3.90
2023-05-18T14:13:48.142Z,3.50
2023-05-18T14:18:55.879Z,4.60
2023-05-18T14:24:05.932Z,3.00
2023-05-18T14:29:13.077Z,4.90
2023-05-18T14:34:20.169Z,4.00
2023-05-18T14:39:27.350Z,5.70
2023-05-18T14:44:34.368Z,5.20
2023-05-18T14:49:41.699Z,5.50
2023-05-18T14:54:48.977Z,4.10
2023-05-18T14:59:56.071Z,5.00
2023-05-18T15:05:03.168Z,3.00
2023-05-18T15:10:11.803Z,7.20
2023-05-18T15:15:19.057Z,3.30
2023-05-18T15:20:27.012Z,3.30
2023-05-18T15:25:34.090Z,3.10
2023-05-18T15:30:41.056Z,3.90
2023-05-18T15:35:48.273Z,6.50
2023-05-18T15:40:55.242Z,2.80
2023-05-18T15:46:02.703Z,5.00
2023-05-18T15:51:09.681Z,4.10
2023-05-18T15:56:16.713Z,4.70
2023-05-18T16:01:23.728Z,3.90
2023-05-18T16:06:30.827Z,5.90
2023-05-18T16:11:37.748Z,3.80
2023-05-18T16:16:44.671Z,3.10
2023-05-18T16:21:51.934Z,4.30
2023-05-18T16:26:58.904Z,6.70
2023-05-18T16:32:06.521Z,5.60
2023-05-18T16:37:13.420Z,9.80
2023-05-18T16:42:20.943Z,4.20
2023-05-18T16:47:28.624Z,2.70
2023-05-18T16:52:35.586Z,5.60
2023-05-18T16:57:43.392Z,5.90
2023-05-18T17:02:50.381Z,5.10
2023-05-18T17:07:57.414Z,5.50
2023-05-18T17:13:04.244Z,4.50
2023-05-18T17:18:11.309Z,3.80
2023-05-18T17:23:19.199Z,4.00
2023-05-18T17:28:26.215Z,3.70
2023-05-18T17:33:33.033Z,6.10
2023-05-18T17:38:39.985Z,3.80
2023-05-18T17:43:46.952Z,3.30
2023-05-18T17:48:54.073Z,4.10
2023-05-18T17:54:00.996Z,3.20
2023-05-18T17:59:09.595Z,5.30
2023-05-18T18:04:17.225Z,5.00
2023-05-18T18:09:24.365Z,2.50
2023-05-18T18:14:31.352Z,5.00
2023-05-18T18:19:38.274Z,5.40
2023-05-18T18:24:45.154Z,6.40
2023-05-18T18:29:52.167Z,3.70
2023-05-18T18:34:59.113Z,4.70
2023-05-18T18:40:07.933Z,6.00
2023-05-18T18:45:16.189Z,7.60
2023-05-18T18:50:23.783Z,4.20
2023-05-18T18:55:31.266Z,4.70
2023-05-18T19:00:38.437Z,5.20
2023-05-18T19:05:45.690Z,6.60
2023-05-18T19:10:52.945Z,6.30
2023-05-18T19:16:00.073Z,8.20
2023-05-18T19:21:07.155Z,10.60
2023-05-18T19:26:14.158Z,6.50
2023-05-18T19:31:21.150Z,6.00
2023-05-18T19:36:30.137Z,6.70
2023-05-18T19:41:39.682Z,10.60
2023-05-18T19:46:46.942Z,6.10
2023-05-18T19:51:54.216Z,6.70
2023-05-18T19:57:01.214Z,7.00
2023-05-18T20:02:11.566Z,7.30
2023-05-18T20:07:20.464Z,8.10
2023-05-18T20:12:28.339Z,7.40
2023-05-18T20:17:35.310Z,7.40
2023-05-18T20:22:42.496Z,6.90
2023-05-18T20:27:49.591Z,6.50
2023-05-18T20:32:59.115Z,14.30
2023-05-18T20:38:07.408Z,7.20
2023-05-18T20:43:20.615Z,11.60
2023-05-18T20:48:29.015Z,5.10
2023-05-18T20:53:36.059Z,6.50
2023-05-18T20:58:48.663Z,9.50
2023-05-18T21:03:58.347Z,10.50
2023-05-18T21:09:08.120Z,11.70
2023-05-18T21:14:15.144Z,9.10
2023-05-18T21:19:22.232Z,5.80
2023-05-18T21:24:29.346Z,7.50
2023-05-18T21:29:36.341Z,7.50
2023-05-18T21:34:43.741Z,8.60
2023-05-18T21:39:51.096Z,11.40
2023-05-18T21:44:58.001Z,12.10
2023-05-18T21:50:05.356Z,13.40
2023-05-18T21:55:13.821Z,12.70
2023-05-18T22:00:22.066Z,14.40
2023-05-18T22:05:29.099Z,15.40
2023-05-18T22:10:36.194Z,11.90
2023-05-18T22:15:43.423Z,14.80
2023-05-18T22:20:50.771Z,16.70
2023-05-18T22:25:58.094Z,14.60
2023-05-18T22:31:05.709Z,13.30
2023-05-18T22:36:12.967Z,13.40
2023-05-18T22:41:20.564Z,14.30
2023-05-18T22:46:27.636Z,12.00
2023-05-18T22:51:35.866Z,20.30
2023-05-18T22:56:42.887Z,14.90
2023-05-18T23:01:54.590Z,15.00
2023-05-18T23:07:04.292Z,17.00
2023-05-18T23:12:12.373Z,15.60
2023-05-18T23:17:22.861Z,18.40
2023-05-18T23:22:31.386Z,15.20
2023-05-18T23:27:38.679Z,20.20
2023-05-18T23:32:46.947Z,17.10
2023-05-18T23:37:56.907Z,17.70
2023-05-18T23:43:04.448Z,11.90
2023-05-18T23:48:13.796Z,15.70
2023-05-18T23:53:22.784Z,11.80
2023-05-18T23:58:32.866Z,11.90
